sensor_id;sensor_type;location;lat;lon;timestamp;pressure;altitude;pressure_sealevel;temperature;humidity
71465;BME280;59274;49.874;9.154;2023-01-28T00:01:02;101216.38;;;2.60;96.71
71465;BME280;59274;49.874;9.154;2023-01-28T00:03:33;101218.44;;;2.63;96.37
71465;BME280;59274;49.874;9.154;2023-01-28T00:06:15;101211.72;;;2.66;96.39
71465;BME280;59274;49.874;9.154;2023-01-28T00:08:55;101208.03;;;2.62;96.38
71465;BME280;59274;49.874;9.154;2023-01-28T00:11:34;101208.47;;;2.69;96.34
71465;BME280;59274;49.874;9.154;2023-01-28T00:14:10;101198.31;;;2.66;96.37
71465;BME280;59274;49.874;9.154;2023-01-28T00:16:48;101201.47;;;2.54;96.78
71465;BME280;59274;49.874;9.154;2023-01-28T00:19:18;101194.72;;;2.57;97.17
71465;BME280;59274;49.874;9.154;2023-01-28T00:21:52;101185.00;;;2.61;96.87
71465;BME280;59274;49.874;9.154;2023-01-28T00:24:26;101185.59;;;2.58;97.18
71465;BME280;59274;49.874;9.154;2023-01-28T00:26:54;101183.38;;;2.46;97.19
71465;BME280;59274;49.874;9.154;2023-01-28T00:29:25;101191.53;;;2.55;96.76
71465;BME280;59274;49.874;9.154;2023-01-28T00:31:55;101191.22;;;2.56;96.59
71465;BME280;59274;49.874;9.154;2023-01-28T00:34:26;101188.34;;;2.53;96.38
71465;BME280;59274;49.874;9.154;2023-01-28T00:37:04;101196.09;;;2.54;96.54
71465;BME280;59274;49.874;9.154;2023-01-28T00:39:34;101194.63;;;2.48;97.09
71465;BME280;59274;49.874;9.154;2023-01-28T00:42:00;101194.81;;;2.52;96.67
71465;BME280;59274;49.874;9.154;2023-01-28T00:45:05;101196.41;;;2.53;96.88
71465;BME280;59274;49.874;9.154;2023-01-28T00:47:41;101197.00;;;2.63;96.69
71465;BME280;59274;49.874;9.154;2023-01-28T00:50:27;101201.22;;;2.69;96.12
71465;BME280;59274;49.874;9.154;2023-01-28T00:52:58;101193.44;;;2.54;96.62
71465;BME280;59274;49.874;9.154;2023-01-28T00:55:23;101204.16;;;2.54;96.66
71465;BME280;59274;49.874;9.154;2023-01-28T00:57:56;101198.56;;;2.51;97.36
71465;BME280;59274;49.874;9.154;2023-01-28T01:00:31;101202.75;;;2.57;96.86
71465;BME280;59274;49.874;9.154;2023-01-28T01:02:59;101207.91;;;2.53;97.21
71465;BME280;59274;49.874;9.154;2023-01-28T01:05:29;101204.28;;;2.63;96.48
71465;BME280;59274;49.874;9.154;2023-01-28T01:08:13;101203.97;;;2.64;96.31
71465;BME280;59274;49.874;9.154;2023-01-28T01:10:40;101202.97;;;2.60;96.55
71465;BME280;59274;49.874;9.154;2023-01-28T01:13:17;101206.22;;;2.57;96.82
71465;BME280;59274;49.874;9.154;2023-01-28T01:15:49;101210.50;;;2.58;97.11
71465;BME280;59274;49.874;9.154;2023-01-28T01:18:17;101211.00;;;2.60;96.98
71465;BME280;59274;49.874;9.154;2023-01-28T01:20:43;101209.41;;;2.59;96.89
71465;BME280;59274;49.874;9.154;2023-01-28T01:23:41;101203.06;;;2.55;97.04
71465;BME280;59274;49.874;9.154;2023-01-28T01:26:09;101210.31;;;2.55;97.04
71465;BME280;59274;49.874;9.154;2023-01-28T01:28:43;101220.53;;;2.53;97.15
71465;BME280;59274;49.874;9.154;2023-01-28T01:31:21;101216.25;;;2.52;97.13
71465;BME280;59274;49.874;9.154;2023-01-28T01:34:00;101211.00;;;2.60;96.85
71465;BME280;59274;49.874;9.154;2023-01-28T01:36:40;101215.59;;;2.60;97.06
71465;BME280;59274;49.874;9.154;2023-01-28T01:39:15;101219.94;;;2.56;97.20
71465;BME280;59274;49.874;9.154;2023-01-28T01:41:48;101224.13;;;2.62;97.50
71465;BME280;59274;49.874;9.154;2023-01-28T01:47:41;101215.75;;;2.50;97.99
71465;BME280;59274;49.874;9.154;2023-01-28T01:50:25;101216.88;;;2.62;97.20
71465;BME280;59274;49.874;9.154;2023-01-28T01:53:11;101217.94;;;2.48;97.88
71465;BME280;59274;49.874;9.154;2023-01-28T01:58:38;101222.91;;;2.54;97.86
71465;BME280;59274;49.874;9.154;2023-01-28T02:01:35;101229.38;;;2.53;97.75
71465;BME280;59274;49.874;9.154;2023-01-28T02:06:35;101221.84;;;2.55;98.84
71465;BME280;59274;49.874;9.154;2023-01-28T02:09:28;101212.19;;;2.54;98.70
71465;BME280;59274;49.874;9.154;2023-01-28T02:12:11;101216.91;;;2.44;99.51
71465;BME280;59274;49.874;9.154;2023-01-28T02:14:57;101216.63;;;2.45;99.65
71465;BME280;59274;49.874;9.154;2023-01-28T02:17:32;101208.69;;;2.40;98.70
71465;BME280;59274;49.874;9.154;2023-01-28T02:20:13;101210.94;;;2.33;98.60
71465;BME280;59274;49.874;9.154;2023-01-28T02:31:41;101223.84;;;2.31;99.06
71465;BME280;59274;49.874;9.154;2023-01-28T02:40:19;101229.69;;;2.33;98.19
71465;BME280;59274;49.874;9.154;2023-01-28T02:43:04;101223.41;;;2.24;97.98
71465;BME280;59274;49.874;9.154;2023-01-28T02:45:42;101222.22;;;2.30;98.06
71465;BME280;59274;49.874;9.154;2023-01-28T02:48:31;101224.53;;;2.36;97.41
71465;BME280;59274;49.874;9.154;2023-01-28T02:51:31;101231.78;;;2.36;97.21
71465;BME280;59274;49.874;9.154;2023-01-28T02:54:10;101231.88;;;2.31;97.20
71465;BME280;59274;49.874;9.154;2023-01-28T03:00:09;101240.78;;;2.26;97.44
71465;BME280;59274;49.874;9.154;2023-01-28T03:03:23;101234.63;;;2.26;97.30
71465;BME280;59274;49.874;9.154;2023-01-28T03:06:06;101239.78;;;2.22;97.27
71465;BME280;59274;49.874;9.154;2023-01-28T03:08:47;101232.53;;;2.23;96.81
71465;BME280;59274;49.874;9.154;2023-01-28T03:11:35;101238.13;;;2.26;96.48
71465;BME280;59274;49.874;9.154;2023-01-28T03:14:30;101231.06;;;2.30;95.62
71465;BME280;59274;49.874;9.154;2023-01-28T03:17:20;101236.28;;;2.22;96.12
71465;BME280;59274;49.874;9.154;2023-01-28T03:20:12;101241.59;;;2.27;95.63
71465;BME280;59274;49.874;9.154;2023-01-28T03:23:02;101247.81;;;2.22;95.52
71465;BME280;59274;49.874;9.154;2023-01-28T03:26:00;101241.38;;;2.23;95.47
71465;BME280;59274;49.874;9.154;2023-01-28T03:28:51;101240.28;;;2.24;95.11
71465;BME280;59274;49.874;9.154;2023-01-28T03:31:45;101240.78;;;2.26;94.77
71465;BME280;59274;49.874;9.154;2023-01-28T03:34:32;101241.66;;;2.22;95.03
71465;BME280;59274;49.874;9.154;2023-01-28T03:37:19;101255.13;;;2.17;95.21
71465;BME280;59274;49.874;9.154;2023-01-28T03:39:49;101251.00;;;2.24;94.67
71465;BME280;59274;49.874;9.154;2023-01-28T03:42:24;101255.34;;;2.20;95.02
71465;BME280;59274;49.874;9.154;2023-01-28T03:44:49;101268.44;;;2.22;95.07
71465;BME280;59274;49.874;9.154;2023-01-28T03:47:31;101263.88;;;2.22;95.28
71465;BME280;59274;49.874;9.154;2023-01-28T03:50:03;101266.38;;;2.19;95.56
71465;BME280;59274;49.874;9.154;2023-01-28T03:52:39;101272.81;;;2.18;95.36
71465;BME280;59274;49.874;9.154;2023-01-28T03:55:12;101266.28;;;2.24;94.83
71465;BME280;59274;49.874;9.154;2023-01-28T03:58:02;101277.94;;;2.14;95.30
71465;BME280;59274;49.874;9.154;2023-01-28T04:00:36;101277.13;;;2.14;95.44
71465;BME280;59274;49.874;9.154;2023-01-28T04:03:17;101281.34;;;2.20;95.13
71465;BME280;59274;49.874;9.154;2023-01-28T04:06:05;101282.22;;;2.15;95.61
71465;BME280;59274;49.874;9.154;2023-01-28T04:08:40;101281.94;;;2.17;95.27
71465;BME280;59274;49.874;9.154;2023-01-28T04:11:18;101279.63;;;2.10;95.29
71465;BME280;59274;49.874;9.154;2023-01-28T04:14:08;101284.72;;;2.07;95.52
71465;BME280;59274;49.874;9.154;2023-01-28T04:16:42;101286.28;;;2.13;95.34
71465;BME280;59274;49.874;9.154;2023-01-28T04:19:40;101281.78;;;2.08;95.76
71465;BME280;59274;49.874;9.154;2023-01-28T04:22:09;101291.63;;;2.13;95.40
71465;BME280;59274;49.874;9.154;2023-01-28T04:24:44;101287.06;;;2.13;95.10
71465;BME280;59274;49.874;9.154;2023-01-28T04:27:12;101283.28;;;2.14;94.99
71465;BME280;59274;49.874;9.154;2023-01-28T04:29:47;101284.97;;;2.10;95.16
71465;BME280;59274;49.874;9.154;2023-01-28T04:32:16;101290.84;;;2.12;95.13
71465;BME280;59274;49.874;9.154;2023-01-28T04:37:42;101289.59;;;2.05;95.44
71465;BME280;59274;49.874;9.154;2023-01-28T04:40:13;101293.88;;;2.06;95.21
71465;BME280;59274;49.874;9.154;2023-01-28T04:42:59;101289.00;;;2.08;95.22
71465;BME280;59274;49.874;9.154;2023-01-28T04:45:35;101290.09;;;2.07;94.88
71465;BME280;59274;49.874;9.154;2023-01-28T04:48:00;101290.59;;;2.09;94.64
71465;BME280;59274;49.874;9.154;2023-01-28T04:50:34;101293.81;;;2.11;94.62
71465;BME280;59274;49.874;9.154;2023-01-28T04:53:06;101294.09;;;2.09;94.69
71465;BME280;59274;49.874;9.154;2023-01-28T04:55:37;101302.47;;;2.03;95.09
71465;BME280;59274;49.874;9.154;2023-01-28T04:58:10;101295.69;;;2.10;94.79
71465;BME280;59274;49.874;9.154;2023-01-28T05:00:53;101292.78;;;2.07;94.62
71465;BME280;59274;49.874;9.154;2023-01-28T05:03:20;101289.88;;;2.03;94.92
71465;BME280;59274;49.874;9.154;2023-01-28T05:06:06;101293.66;;;2.02;94.90
71465;BME280;59274;49.874;9.154;2023-01-28T05:08:41;101295.75;;;2.05;94.97
71465;BME280;59274;49.874;9.154;2023-01-28T05:11:27;101299.09;;;1.97;95.39
71465;BME280;59274;49.874;9.154;2023-01-28T05:13:55;101298.13;;;2.07;95.13
71465;BME280;59274;49.874;9.154;2023-01-28T05:16:25;101300.31;;;2.05;94.92
71465;BME280;59274;49.874;9.154;2023-01-28T05:18:58;101295.69;;;2.10;94.66
71465;BME280;59274;49.874;9.154;2023-01-28T05:21:23;101298.09;;;2.12;94.28
71465;BME280;59274;49.874;9.154;2023-01-28T05:23:51;101300.25;;;2.10;94.65
71465;BME280;59274;49.874;9.154;2023-01-28T05:26:19;101297.50;;;2.15;94.30
71465;BME280;59274;49.874;9.154;2023-01-28T05:28:52;101303.13;;;2.13;94.15
71465;BME280;59274;49.874;9.154;2023-01-28T05:31:27;101301.31;;;2.09;94.09
71465;BME280;59274;49.874;9.154;2023-01-28T05:34:07;101306.97;;;2.07;94.63
71465;BME280;59274;49.874;9.154;2023-01-28T05:36:41;101305.69;;;2.05;94.41
71465;BME280;59274;49.874;9.154;2023-01-28T05:39:18;101310.44;;;2.08;94.22
71465;BME280;59274;49.874;9.154;2023-01-28T05:41:46;101315.34;;;2.01;94.14
71465;BME280;59274;49.874;9.154;2023-01-28T05:44:11;101309.56;;;1.93;94.49
71465;BME280;59274;49.874;9.154;2023-01-28T05:46:39;101309.56;;;1.93;94.65
71465;BME280;59274;49.874;9.154;2023-01-28T05:49:09;101320.16;;;2.04;94.34
71465;BME280;59274;49.874;9.154;2023-01-28T05:51:41;101321.44;;;2.06;93.73
71465;BME280;59274;49.874;9.154;2023-01-28T05:54:14;101331.44;;;2.01;93.97
71465;BME280;59274;49.874;9.154;2023-01-28T05:56:49;101321.50;;;2.01;93.97
71465;BME280;59274;49.874;9.154;2023-01-28T05:59:25;101335.94;;;2.05;93.95
71465;BME280;59274;49.874;9.154;2023-01-28T06:01:58;101328.72;;;2.06;93.57
71465;BME280;59274;49.874;9.154;2023-01-28T06:04:23;101341.66;;;1.99;93.79
71465;BME280;59274;49.874;9.154;2023-01-28T06:06:58;101347.75;;;2.04;94.29
71465;BME280;59274;49.874;9.154;2023-01-28T06:09:26;101350.63;;;2.08;93.91
71465;BME280;59274;49.874;9.154;2023-01-28T06:11:55;101351.44;;;2.08;94.34
71465;BME280;59274;49.874;9.154;2023-01-28T06:14:21;101349.09;;;2.02;94.43
71465;BME280;59274;49.874;9.154;2023-01-28T06:17:00;101360.91;;;2.01;94.44
71465;BME280;59274;49.874;9.154;2023-01-28T06:19:25;101354.75;;;2.00;94.58
71465;BME280;59274;49.874;9.154;2023-01-28T06:21:54;101354.47;;;2.02;94.95
71465;BME280;59274;49.874;9.154;2023-01-28T06:24:27;101360.97;;;1.95;95.62
71465;BME280;59274;49.874;9.154;2023-01-28T06:27:02;101362.69;;;1.86;96.06
71465;BME280;59274;49.874;9.154;2023-01-28T06:29:36;101373.63;;;1.90;96.34
71465;BME280;59274;49.874;9.154;2023-01-28T06:32:11;101378.47;;;1.88;96.50
71465;BME280;59274;49.874;9.154;2023-01-28T06:34:56;101384.91;;;1.87;96.63
71465;BME280;59274;49.874;9.154;2023-01-28T06:37:27;101383.63;;;1.84;96.61
71465;BME280;59274;49.874;9.154;2023-01-28T06:39:53;101383.38;;;1.81;96.81
71465;BME280;59274;49.874;9.154;2023-01-28T06:42:26;101390.03;;;1.83;97.00
71465;BME280;59274;49.874;9.154;2023-01-28T06:45:02;101387.13;;;1.80;97.38
71465;BME280;59274;49.874;9.154;2023-01-28T06:47:40;101384.22;;;1.76;97.34
71465;BME280;59274;49.874;9.154;2023-01-28T06:50:19;101388.53;;;1.72;97.28
71465;BME280;59274;49.874;9.154;2023-01-28T06:52:52;101395.91;;;1.85;96.35
71465;BME280;59274;49.874;9.154;2023-01-28T06:55:38;101391.19;;;1.77;96.50
71465;BME280;59274;49.874;9.154;2023-01-28T06:58:08;101396.31;;;1.74;96.81
71465;BME280;59274;49.874;9.154;2023-01-28T07:00:37;101403.44;;;1.83;96.42
71465;BME280;59274;49.874;9.154;2023-01-28T07:03:07;101397.22;;;1.88;95.69
71465;BME280;59274;49.874;9.154;2023-01-28T07:05:45;101397.50;;;1.86;95.46
71465;BME280;59274;49.874;9.154;2023-01-28T07:08:23;101400.97;;;1.87;94.95
71465;BME280;59274;49.874;9.154;2023-01-28T07:10:49;101397.47;;;1.91;94.46
71465;BME280;59274;49.874;9.154;2023-01-28T07:13:20;101402.47;;;1.98;93.86
71465;BME280;59274;49.874;9.154;2023-01-28T07:15:48;101399.19;;;2.01;93.62
71465;BME280;59274;49.874;9.154;2023-01-28T07:18:22;101407.03;;;1.98;93.78
71465;BME280;59274;49.874;9.154;2023-01-28T07:21:03;101407.50;;;2.00;93.45
71465;BME280;59274;49.874;9.154;2023-01-28T07:23:36;101410.78;;;1.96;93.58
71465;BME280;59274;49.874;9.154;2023-01-28T07:26:15;101410.53;;;1.93;93.76
71465;BME280;59274;49.874;9.154;2023-01-28T07:28:52;101408.38;;;1.95;93.46
71465;BME280;59274;49.874;9.154;2023-01-28T07:31:43;101406.97;;;2.03;93.46
71465;BME280;59274;49.874;9.154;2023-01-28T07:36:58;101408.31;;;2.00;93.53
71465;BME280;59274;49.874;9.154;2023-01-28T07:39:26;101406.44;;;2.01;93.73
71465;BME280;59274;49.874;9.154;2023-01-28T07:42:01;101410.63;;;2.12;92.89
71465;BME280;59274;49.874;9.154;2023-01-28T07:44:43;101406.53;;;2.14;92.04
71465;BME280;59274;49.874;9.154;2023-01-28T07:47:08;101412.13;;;2.18;91.81
71465;BME280;59274;49.874;9.154;2023-01-28T07:49:41;101414.53;;;2.19;91.68
71465;BME280;59274;49.874;9.154;2023-01-28T07:52:29;101411.63;;;2.16;91.11
71465;BME280;59274;49.874;9.154;2023-01-28T07:54:57;101422.25;;;2.21;91.36
71465;BME280;59274;49.874;9.154;2023-01-28T07:57:27;101422.97;;;2.31;91.18
71465;BME280;59274;49.874;9.154;2023-01-28T08:00:03;101429.97;;;2.27;91.31
71465;BME280;59274;49.874;9.154;2023-01-28T08:02:38;101435.84;;;2.29;90.85
71465;BME280;59274;49.874;9.154;2023-01-28T08:05:14;101437.78;;;2.24;90.69
71465;BME280;59274;49.874;9.154;2023-01-28T08:07:49;101440.81;;;2.17;91.36
71465;BME280;59274;49.874;9.154;2023-01-28T08:10:18;101446.16;;;2.17;91.48
71465;BME280;59274;49.874;9.154;2023-01-28T08:13:01;101445.75;;;2.29;91.07
71465;BME280;59274;49.874;9.154;2023-01-28T08:15:34;101446.44;;;2.40;89.83
71465;BME280;59274;49.874;9.154;2023-01-28T08:18:06;101443.03;;;2.34;90.22
71465;BME280;59274;49.874;9.154;2023-01-28T08:20:38;101442.22;;;2.33;90.19
71465;BME280;59274;49.874;9.154;2023-01-28T08:23:18;101441.13;;;2.34;90.30
71465;BME280;59274;49.874;9.154;2023-01-28T08:26:02;101455.13;;;2.31;89.89
71465;BME280;59274;49.874;9.154;2023-01-28T08:28:52;101447.00;;;2.36;90.02
71465;BME280;59274;49.874;9.154;2023-01-28T08:31:18;101457.53;;;2.33;89.84
71465;BME280;59274;49.874;9.154;2023-01-28T08:33:58;101452.66;;;2.35;90.00
71465;BME280;59274;49.874;9.154;2023-01-28T08:36:24;101450.50;;;2.37;89.55
71465;BME280;59274;49.874;9.154;2023-01-28T08:38:54;101448.41;;;2.34;89.88
71465;BME280;59274;49.874;9.154;2023-01-28T08:41:35;101451.53;;;2.41;89.99
71465;BME280;59274;49.874;9.154;2023-01-28T08:44:11;101456.22;;;2.49;89.05
71465;BME280;59274;49.874;9.154;2023-01-28T08:46:47;101452.25;;;2.47;88.96
71465;BME280;59274;49.874;9.154;2023-01-28T08:49:20;101456.22;;;2.49;89.36
71465;BME280;59274;49.874;9.154;2023-01-28T08:51:48;101451.38;;;2.51;88.98
71465;BME280;59274;49.874;9.154;2023-01-28T08:54:18;101452.19;;;2.52;88.95
71465;BME280;59274;49.874;9.154;2023-01-28T08:56:55;101449.28;;;2.48;89.06
71465;BME280;59274;49.874;9.154;2023-01-28T08:59:29;101451.38;;;2.51;88.74
71465;BME280;59274;49.874;9.154;2023-01-28T09:01:58;101459.88;;;2.58;88.99
71465;BME280;59274;49.874;9.154;2023-01-28T09:04:33;101443.34;;;2.51;88.70
71465;BME280;59274;49.874;9.154;2023-01-28T09:07:16;101450.84;;;2.49;87.92
71465;BME280;59274;49.874;9.154;2023-01-28T09:10:02;101457.91;;;2.45;88.19
71465;BME280;59274;49.874;9.154;2023-01-28T09:12:31;101454.19;;;2.41;88.50
71465;BME280;59274;49.874;9.154;2023-01-28T09:15:12;101459.78;;;2.45;87.54
71465;BME280;59274;49.874;9.154;2023-01-28T09:17:49;101465.38;;;2.48;87.80
71465;BME280;59274;49.874;9.154;2023-01-28T09:20:15;101474.72;;;2.51;87.87
71465;BME280;59274;49.874;9.154;2023-01-28T09:22:52;101477.56;;;2.59;87.15
71465;BME280;59274;49.874;9.154;2023-01-28T09:25:20;101482.47;;;2.52;86.59
71465;BME280;59274;49.874;9.154;2023-01-28T09:27:53;101486.22;;;2.51;87.34
71465;BME280;59274;49.874;9.154;2023-01-28T09:30:19;101484.06;;;2.53;86.76
71465;BME280;59274;49.874;9.154;2023-01-28T09:32:55;101491.53;;;2.56;86.38
71465;BME280;59274;49.874;9.154;2023-01-28T09:35:34;101493.63;;;2.59;86.05
71465;BME280;59274;49.874;9.154;2023-01-28T09:38:02;101497.06;;;2.65;85.92
71465;BME280;59274;49.874;9.154;2023-01-28T09:40:52;101490.88;;;2.64;84.86
71465;BME280;59274;49.874;9.154;2023-01-28T09:47:07;101499.44;;;2.66;84.64
71465;BME280;59274;49.874;9.154;2023-01-28T09:49:47;101504.13;;;2.56;84.51
71465;BME280;59274;49.874;9.154;2023-01-28T09:52:25;101498.00;;;2.55;84.28
71465;BME280;59274;49.874;9.154;2023-01-28T09:55:09;101507.75;;;2.46;84.91
71465;BME280;59274;49.874;9.154;2023-01-28T09:57:48;101497.75;;;2.52;84.78
71465;BME280;59274;49.874;9.154;2023-01-28T10:00:46;101507.81;;;2.41;84.68
71465;BME280;59274;49.874;9.154;2023-01-28T10:03:36;101502.28;;;2.32;85.07
71465;BME280;59274;49.874;9.154;2023-01-28T10:06:21;101508.94;;;2.35;84.40
71465;BME280;59274;49.874;9.154;2023-01-28T10:18:01;101529.13;;;2.04;85.49
71465;BME280;59274;49.874;9.154;2023-01-28T10:20:51;101521.06;;;2.04;85.58
71465;BME280;59274;49.874;9.154;2023-01-28T10:23:27;101519.94;;;2.10;85.78
71465;BME280;59274;49.874;9.154;2023-01-28T10:26:04;101525.81;;;2.12;86.19
71465;BME280;59274;49.874;9.154;2023-01-28T10:28:44;101532.06;;;2.02;86.03
71465;BME280;59274;49.874;9.154;2023-01-28T10:31:19;101526.53;;;1.93;85.60
71465;BME280;59274;49.874;9.154;2023-01-28T10:36:59;101530.81;;;1.94;85.72
71465;BME280;59274;49.874;9.154;2023-01-28T10:39:42;101531.31;;;1.96;85.56
71465;BME280;59274;49.874;9.154;2023-01-28T10:42:33;101529.44;;;1.97;85.01
71465;BME280;59274;49.874;9.154;2023-01-28T10:45:17;101530.72;;;2.05;85.03
71465;BME280;59274;49.874;9.154;2023-01-28T10:50:27;101524.78;;;2.08;84.56
71465;BME280;59274;49.874;9.154;2023-01-28T10:53:07;101536.00;;;2.10;84.53
71465;BME280;59274;49.874;9.154;2023-01-28T10:55:49;101540.34;;;2.06;84.67
71465;BME280;59274;49.874;9.154;2023-01-28T10:58:32;101543.50;;;2.13;84.28
71465;BME280;59274;49.874;9.154;2023-01-28T11:01:07;101538.16;;;2.08;84.88
71465;BME280;59274;49.874;9.154;2023-01-28T11:06:30;101535.81;;;2.01;84.39
71465;BME280;59274;49.874;9.154;2023-01-28T11:09:17;101539.25;;;2.07;84.31
71465;BME280;59274;49.874;9.154;2023-01-28T11:11:45;101537.63;;;2.11;83.82
71465;BME280;59274;49.874;9.154;2023-01-28T11:14:21;101544.59;;;2.07;83.66
71465;BME280;59274;49.874;9.154;2023-01-28T11:16:51;101542.56;;;1.99;84.00
71465;BME280;59274;49.874;9.154;2023-01-28T11:19:33;101544.13;;;2.00;84.20
71465;BME280;59274;49.874;9.154;2023-01-28T11:22:03;101545.75;;;2.01;84.27
71465;BME280;59274;49.874;9.154;2023-01-28T11:24:33;101552.94;;;2.05;84.09
71465;BME280;59274;49.874;9.154;2023-01-28T11:27:13;101536.41;;;1.98;83.70
71465;BME280;59274;49.874;9.154;2023-01-28T11:29:56;101537.22;;;1.99;84.11
71465;BME280;59274;49.874;9.154;2023-01-28T11:32:28;101545.19;;;2.04;83.59
71465;BME280;59274;49.874;9.154;2023-01-28T11:35:29;101544.59;;;2.07;83.30
71465;BME280;59274;49.874;9.154;2023-01-28T11:37:59;101543.25;;;2.09;82.59
71465;BME280;59274;49.874;9.154;2023-01-28T11:40:49;101535.59;;;1.98;83.22
71465;BME280;59274;49.874;9.154;2023-01-28T11:43:21;101531.25;;;2.02;83.33
71465;BME280;59274;49.874;9.154;2023-01-28T11:46:17;101535.28;;;2.04;82.92
71465;BME280;59274;49.874;9.154;2023-01-28T11:52:08;101528.72;;;2.15;82.38
71465;BME280;59274;49.874;9.154;2023-01-28T11:55:44;101527.09;;;2.19;82.07
71465;BME280;59274;49.874;9.154;2023-01-28T12:14:51;101513.25;;;2.07;82.39
71465;BME280;59274;49.874;9.154;2023-01-28T12:25:32;101508.22;;;2.01;81.82
71465;BME280;59274;49.874;9.154;2023-01-28T12:33:53;101512.56;;;1.96;82.34
71465;BME280;59274;49.874;9.154;2023-01-28T12:36:54;101512.28;;;1.98;81.73
71465;BME280;59274;49.874;9.154;2023-01-28T12:40:09;101502.88;;;2.01;81.87
71465;BME280;59274;49.874;9.154;2023-01-28T12:42:53;101501.47;;;2.08;82.04
71465;BME280;59274;49.874;9.154;2023-01-28T12:45:36;101499.84;;;2.07;81.72
71465;BME280;59274;49.874;9.154;2023-01-28T12:48:34;101500.91;;;2.11;81.07
71465;BME280;59274;49.874;9.154;2023-01-28T12:51:45;101507.91;;;2.07;81.59
71465;BME280;59274;49.874;9.154;2023-01-28T12:57:26;101501.66;;;2.17;81.98
71465;BME280;59274;49.874;9.154;2023-01-28T13:05:38;101476.78;;;2.11;81.16
71465;BME280;59274;49.874;9.154;2023-01-28T13:08:22;101494.56;;;2.02;81.26
71465;BME280;59274;49.874;9.154;2023-01-28T13:10:55;101499.19;;;1.96;81.38
71465;BME280;59274;49.874;9.154;2023-01-28T13:13:59;101495.44;;;1.92;81.65
71465;BME280;59274;49.874;9.154;2023-01-28T13:16:30;101499.31;;;1.81;81.96
71465;BME280;59274;49.874;9.154;2023-01-28T13:19:19;101504.28;;;1.93;81.89
71465;BME280;59274;49.874;9.154;2023-01-28T13:21:56;101505.66;;;1.90;81.99
71465;BME280;59274;49.874;9.154;2023-01-28T13:24:30;101502.53;;;1.83;82.02
71465;BME280;59274;49.874;9.154;2023-01-28T13:27:10;101500.41;;;1.80;81.80
71465;BME280;59274;49.874;9.154;2023-01-28T13:29:40;101492.09;;;1.82;81.43
71465;BME280;59274;49.874;9.154;2023-01-28T13:32:53;101502.53;;;1.83;80.91
71465;BME280;59274;49.874;9.154;2023-01-28T13:38:16;101512.47;;;1.78;81.32
71465;BME280;59274;49.874;9.154;2023-01-28T13:41:05;101526.38;;;1.80;80.94
71465;BME280;59274;49.874;9.154;2023-01-28T13:46:51;101527.31;;;1.94;79.93
71465;BME280;59274;49.874;9.154;2023-01-28T13:49:43;101530.25;;;1.98;79.10
71465;BME280;59274;49.874;9.154;2023-01-28T13:55:21;101541.03;;;1.87;78.59
71465;BME280;59274;49.874;9.154;2023-01-28T14:15:02;101556.59;;;1.85;75.87
71465;BME280;59274;49.874;9.154;2023-01-28T14:17:55;101557.63;;;1.89;75.16
71465;BME280;59274;49.874;9.154;2023-01-28T14:20:28;101558.78;;;1.78;74.31
71465;BME280;59274;49.874;9.154;2023-01-28T14:23:15;101553.44;;;1.78;74.34
71465;BME280;59274;49.874;9.154;2023-01-28T14:29:28;101577.50;;;1.83;74.37
71465;BME280;59274;49.874;9.154;2023-01-28T14:32:25;101571.34;;;1.83;74.86
71465;BME280;59274;49.874;9.154;2023-01-28T14:34:52;101565.41;;;1.86;73.02
71465;BME280;59274;49.874;9.154;2023-01-28T14:37:23;101566.66;;;1.70;73.60
71465;BME280;59274;49.874;9.154;2023-01-28T14:40:01;101574.41;;;1.66;72.74
71465;BME280;59274;49.874;9.154;2023-01-28T14:42:38;101571.78;;;1.61;72.27
71465;BME280;59274;49.874;9.154;2023-01-28T14:54:04;101572.38;;;1.53;70.96
71465;BME280;59274;49.874;9.154;2023-01-28T14:59:43;101585.50;;;1.54;70.44
71465;BME280;59274;49.874;9.154;2023-01-28T15:02:34;101584.16;;;1.52;70.37
71465;BME280;59274;49.874;9.154;2023-01-28T15:05:18;101579.66;;;1.47;70.29
71465;BME280;59274;49.874;9.154;2023-01-28T15:07:47;101582.81;;;1.49;70.40
71465;BME280;59274;49.874;9.154;2023-01-28T15:10:50;101571.69;;;1.37;70.43
71465;BME280;59274;49.874;9.154;2023-01-28T15:13:40;101574.84;;;1.44;70.96
71465;BME280;59274;49.874;9.154;2023-01-28T15:16:27;101584.47;;;1.45;70.90
71465;BME280;59274;49.874;9.154;2023-01-28T15:19:01;101566.59;;;1.41;70.84
71465;BME280;59274;49.874;9.154;2023-01-28T15:21:37;101568.38;;;1.50;71.76
71465;BME280;59274;49.874;9.154;2023-01-28T15:24:18;101569.66;;;1.58;70.65
71465;BME280;59274;49.874;9.154;2023-01-28T15:26:46;101569.59;;;1.68;70.78
71465;BME280;59274;49.874;9.154;2023-01-28T15:29:32;101561.28;;;1.70;70.01
71465;BME280;59274;49.874;9.154;2023-01-28T15:32:22;101558.63;;;1.65;70.00
71465;BME280;59274;49.874;9.154;2023-01-28T15:34:52;101544.75;;;1.57;70.15
71465;BME280;59274;49.874;9.154;2023-01-28T15:37:28;101542.09;;;1.57;71.27
71465;BME280;59274;49.874;9.154;2023-01-28T15:40:06;101548.81;;;1.55;70.11
71465;BME280;59274;49.874;9.154;2023-01-28T15:42:47;101560.66;;;1.44;69.55
71465;BME280;59274;49.874;9.154;2023-01-28T15:45:20;101566.00;;;1.44;70.06
71465;BME280;59274;49.874;9.154;2023-01-28T15:50:43;101571.72;;;1.32;70.57
71465;BME280;59274;49.874;9.154;2023-01-28T15:53:13;101560.75;;;1.29;70.72
71465;BME280;59274;49.874;9.154;2023-01-28T15:55:51;101560.47;;;1.30;70.37
71465;BME280;59274;49.874;9.154;2023-01-28T15:58:30;101563.44;;;1.29;71.14
71465;BME280;59274;49.874;9.154;2023-01-28T16:01:19;101556.47;;;1.33;70.64
71465;BME280;59274;49.874;9.154;2023-01-28T16:04:27;101557.25;;;1.33;70.88
71465;BME280;59274;49.874;9.154;2023-01-28T16:07:05;101549.22;;;1.33;71.30
71465;BME280;59274;49.874;9.154;2023-01-28T16:09:33;101556.19;;;1.34;71.27
71465;BME280;59274;49.874;9.154;2023-01-28T16:12:18;101561.81;;;1.33;71.28
71465;BME280;59274;49.874;9.154;2023-01-28T16:14:49;101563.38;;;1.39;71.19
71465;BME280;59274;49.874;9.154;2023-01-28T16:17:27;101564.22;;;1.29;71.55